sensor_id;sensor_type;location;lat;lon;timestamp;P1;durP1;ratioP1;P2;durP2;ratioP2
65753;SDS011;52488;47.502;18.940;2022-08-23T00:00:59;16.87;;;9.48;;
65753;SDS011;52488;47.502;18.940;2022-08-23T00:02:05;13.93;;;8.60;;
65753;SDS011;52488;47.502;18.940;2022-08-23T00:03:25;11.90;;;8.60;;
65753;SDS011;52488;47.502;18.940;2022-08-23T00:04:33;12.35;;;8.80;;
65753;SDS011;52488;47.502;18.940;2022-08-23T00:05:39;18.40;;;9.55;;
65753;SDS011;52488;47.502;18.940;2022-08-23T00:06:43;13.25;;;9.00;;
65753;SDS011;52488;47.502;18.940;2022-08-23T00:07:47;11.25;;;8.93;;
65753;SDS011;52488;47.502;18.940;2022-08-23T00:08:51;16.17;;;9.25;;
65753;SDS011;52488;47.502;18.940;2022-08-23T00:09:55;13.55;;;9.07;;
65753;SDS011;52488;47.502;18.940;2022-08-23T00:11:00;12.35;;;8.43;;
65753;SDS011;52488;47.502;18.940;2022-08-23T00:12:14;11.32;;;8.45;;
65753;SDS011;52488;47.502;18.940;2022-08-23T00:13:19;13.62;;;8.90;;
65753;SDS011;52488;47.502;18.940;2022-08-23T00:14:25;12.25;;;8.05;;
65753;SDS011;52488;47.502;18.940;2022-08-23T00:15:33;11.43;;;9.23;;
65753;SDS011;52488;47.502;18.940;2022-08-23T00:16:36;11.77;;;8.65;;
65753;SDS011;52488;47.502;18.940;2022-08-23T00:17:40;11.73;;;9.00;;
65753;SDS011;52488;47.502;18.940;2022-08-23T00:18:46;12.50;;;8.70;;
65753;SDS011;52488;47.502;18.940;2022-08-23T00:19:50;18.08;;;9.45;;
65753;SDS011;52488;47.502;18.940;2022-08-23T00:20:53;14.20;;;9.15;;
65753;SDS011;52488;47.502;18.940;2022-08-23T00:21:56;16.23;;;9.45;;
65753;SDS011;52488;47.502;18.940;2022-08-23T00:22:59;11.68;;;8.52;;
65753;SDS011;52488;47.502;18.940;2022-08-23T00:24:03;12.95;;;8.48;;
65753;SDS011;52488;47.502;18.940;2022-08-23T00:25:11;13.77;;;8.05;;
65753;SDS011;52488;47.502;18.940;2022-08-23T00:26:15;13.18;;;7.93;;
65753;SDS011;52488;47.502;18.940;2022-08-23T00:27:19;14.35;;;8.23;;
65753;SDS011;52488;47.502;18.940;2022-08-23T00:28:22;10.55;;;8.43;;
65753;SDS011;52488;47.502;18.940;2022-08-23T00:29:29;12.57;;;8.50;;
65753;SDS011;52488;47.502;18.940;2022-08-23T00:30:34;20.62;;;9.02;;
65753;SDS011;52488;47.502;18.940;2022-08-23T00:31:38;17.85;;;9.35;;
65753;SDS011;52488;47.502;18.940;2022-08-23T00:32:41;15.93;;;9.25;;
65753;SDS011;52488;47.502;18.940;2022-08-23T00:33:46;16.12;;;9.38;;
65753;SDS011;52488;47.502;18.940;2022-08-23T00:34:50;13.70;;;9.07;;
65753;SDS011;52488;47.502;18.940;2022-08-23T00:35:53;22.55;;;9.85;;
65753;SDS011;52488;47.502;18.940;2022-08-23T00:36:56;20.42;;;10.27;;
65753;SDS011;52488;47.502;18.940;2022-08-23T00:37:59;15.45;;;9.48;;
65753;SDS011;52488;47.502;18.940;2022-08-23T00:39:22;14.80;;;9.43;;
65753;SDS011;52488;47.502;18.940;2022-08-23T00:40:25;13.73;;;9.07;;
65753;SDS011;52488;47.502;18.940;2022-08-23T00:41:28;14.43;;;9.25;;
65753;SDS011;52488;47.502;18.940;2022-08-23T00:42:42;15.35;;;8.48;;
65753;SDS011;52488;47.502;18.940;2022-08-23T00:44:17;12.95;;;8.35;;
65753;SDS011;52488;47.502;18.940;2022-08-23T00:45:49;16.17;;;8.68;;
65753;SDS011;52488;47.502;18.940;2022-08-23T00:47:16;21.70;;;9.50;;
65753;SDS011;52488;47.502;18.940;2022-08-23T00:48:42;16.17;;;8.60;;
65753;SDS011;52488;47.502;18.940;2022-08-23T00:49:46;12.60;;;8.73;;
65753;SDS011;52488;47.502;18.940;2022-08-23T00:52:21;11.23;;;8.32;;
65753;SDS011;52488;47.502;18.940;2022-08-23T00:53:35;13.68;;;7.85;;
65753;SDS011;52488;47.502;18.940;2022-08-23T00:54:41;15.63;;;8.25;;
65753;SDS011;52488;47.502;18.940;2022-08-23T00:55:45;13.30;;;7.78;;
65753;SDS011;52488;47.502;18.940;2022-08-23T00:56:52;14.20;;;7.93;;
65753;SDS011;52488;47.502;18.940;2022-08-23T00:57:58;13.48;;;8.05;;
65753;SDS011;52488;47.502;18.940;2022-08-23T00:59:03;13.62;;;7.53;;
65753;SDS011;52488;47.502;18.940;2022-08-23T01:00:07;13.13;;;8.38;;
65753;SDS011;52488;47.502;18.940;2022-08-23T01:01:12;16.17;;;7.50;;
65753;SDS011;52488;47.502;18.940;2022-08-23T01:02:19;19.87;;;8.30;;
65753;SDS011;52488;47.502;18.940;2022-08-23T01:03:22;21.40;;;8.85;;
65753;SDS011;52488;47.502;18.940;2022-08-23T01:04:30;12.35;;;7.97;;
65753;SDS011;52488;47.502;18.940;2022-08-23T01:06:24;13.75;;;7.97;;
65753;SDS011;52488;47.502;18.940;2022-08-23T01:07:19;22.87;;;8.05;;
65753;SDS011;52488;47.502;18.940;2022-08-23T01:08:38;13.57;;;7.07;;
65753;SDS011;52488;47.502;18.940;2022-08-23T01:09:50;14.80;;;8.02;;
65753;SDS011;52488;47.502;18.940;2022-08-23T01:10:59;17.37;;;8.40;;
65753;SDS011;52488;47.502;18.940;2022-08-23T01:12:12;16.50;;;8.25;;
65753;SDS011;52488;47.502;18.940;2022-08-23T01:13:41;16.25;;;7.87;;
65753;SDS011;52488;47.502;18.940;2022-08-23T01:15:00;18.08;;;8.43;;
65753;SDS011;52488;47.502;18.940;2022-08-23T01:16:20;13.18;;;9.45;;
65753;SDS011;52488;47.502;18.940;2022-08-23T01:17:37;13.55;;;7.87;;
65753;SDS011;52488;47.502;18.940;2022-08-23T01:18:45;14.48;;;8.20;;
65753;SDS011;52488;47.502;18.940;2022-08-23T01:19:52;20.42;;;9.02;;
65753;SDS011;52488;47.502;18.940;2022-08-23T01:21:04;16.77;;;8.57;;
65753;SDS011;52488;47.502;18.940;2022-08-23T01:22:26;15.73;;;8.65;;
65753;SDS011;52488;47.502;18.940;2022-08-23T01:24:45;27.67;;;9.02;;
65753;SDS011;52488;47.502;18.940;2022-08-23T01:26:09;13.23;;;8.32;;
65753;SDS011;52488;47.502;18.940;2022-08-23T01:27:13;15.20;;;9.35;;
65753;SDS011;52488;47.502;18.940;2022-08-23T01:28:16;17.27;;;8.68;;
65753;SDS011;52488;47.502;18.940;2022-08-23T01:29:19;19.87;;;9.30;;
65753;SDS011;52488;47.502;18.940;2022-08-23T01:30:27;28.23;;;9.93;;
65753;SDS011;52488;47.502;18.940;2022-08-23T01:31:34;18.70;;;9.88;;
65753;SDS011;52488;47.502;18.940;2022-08-23T01:32:43;18.85;;;8.65;;
65753;SDS011;52488;47.502;18.940;2022-08-23T01:33:53;16.65;;;9.95;;
65753;SDS011;52488;47.502;18.940;2022-08-23T01:35:02;20.88;;;9.45;;
65753;SDS011;52488;47.502;18.940;2022-08-23T01:36:08;18.15;;;9.45;;
65753;SDS011;52488;47.502;18.940;2022-08-23T01:37:13;31.17;;;10.32;;
65753;SDS011;52488;47.502;18.940;2022-08-23T01:38:16;57.90;;;10.75;;
65753;SDS011;52488;47.502;18.940;2022-08-23T01:39:19;24.65;;;9.48;;
65753;SDS011;52488;47.502;18.940;2022-08-23T01:40:22;17.77;;;9.45;;
65753;SDS011;52488;47.502;18.940;2022-08-23T01:41:25;24.25;;;9.63;;
65753;SDS011;52488;47.502;18.940;2022-08-23T01:42:28;32.70;;;10.48;;
65753;SDS011;52488;47.502;18.940;2022-08-23T01:43:32;18.33;;;9.60;;
65753;SDS011;52488;47.502;18.940;2022-08-23T01:44:35;16.80;;;10.15;;
65753;SDS011;52488;47.502;18.940;2022-08-23T01:45:39;16.85;;;9.93;;
65753;SDS011;52488;47.502;18.940;2022-08-23T01:46:43;20.35;;;9.82;;
65753;SDS011;52488;47.502;18.940;2022-08-23T01:47:48;24.85;;;10.40;;
65753;SDS011;52488;47.502;18.940;2022-08-23T01:48:52;19.23;;;10.43;;
65753;SDS011;52488;47.502;18.940;2022-08-23T01:49:56;17.90;;;10.13;;
65753;SDS011;52488;47.502;18.940;2022-08-23T01:51:00;19.60;;;9.68;;
65753;SDS011;52488;47.502;18.940;2022-08-23T01:52:03;20.98;;;10.90;;
65753;SDS011;52488;47.502;18.940;2022-08-23T01:53:06;25.30;;;10.50;;
65753;SDS011;52488;47.502;18.940;2022-08-23T01:54:09;18.92;;;10.02;;
65753;SDS011;52488;47.502;18.940;2022-08-23T01:55:13;21.77;;;10.68;;
65753;SDS011;52488;47.502;18.940;2022-08-23T01:56:16;29.23;;;11.00;;
65753;SDS011;52488;47.502;18.940;2022-08-23T01:57:40;33.83;;;10.20;;
65753;SDS011;52488;47.502;18.940;2022-08-23T01:58:50;27.52;;;10.52;;
65753;SDS011;52488;47.502;18.940;2022-08-23T01:59:54;22.00;;;9.85;;
65753;SDS011;52488;47.502;18.940;2022-08-23T02:00:59;18.23;;;10.07;;
65753;SDS011;52488;47.502;18.940;2022-08-23T02:02:06;28.58;;;10.05;;
65753;SDS011;52488;47.502;18.940;2022-08-23T02:03:10;20.10;;;9.48;;
65753;SDS011;52488;47.502;18.940;2022-08-23T02:04:14;24.27;;;10.05;;
65753;SDS011;52488;47.502;18.940;2022-08-23T02:05:17;22.60;;;10.15;;
65753;SDS011;52488;47.502;18.940;2022-08-23T02:06:20;17.75;;;9.95;;
65753;SDS011;52488;47.502;18.940;2022-08-23T02:07:27;15.18;;;9.68;;
65753;SDS011;52488;47.502;18.940;2022-08-23T02:08:30;25.50;;;10.82;;
65753;SDS011;52488;47.502;18.940;2022-08-23T02:09:53;18.90;;;9.90;;
65753;SDS011;52488;47.502;18.940;2022-08-23T02:10:57;22.90;;;11.18;;
65753;SDS011;52488;47.502;18.940;2022-08-23T02:12:01;29.45;;;10.02;;
65753;SDS011;52488;47.502;18.940;2022-08-23T02:13:05;17.30;;;10.27;;
65753;SDS011;52488;47.502;18.940;2022-08-23T02:14:10;17.87;;;10.05;;
65753;SDS011;52488;47.502;18.940;2022-08-23T02:15:16;20.92;;;9.70;;
65753;SDS011;52488;47.502;18.940;2022-08-23T02:16:20;27.02;;;9.68;;
65753;SDS011;52488;47.502;18.940;2022-08-23T02:17:25;24.02;;;10.13;;
65753;SDS011;52488;47.502;18.940;2022-08-23T02:18:29;18.23;;;10.18;;
65753;SDS011;52488;47.502;18.940;2022-08-23T02:19:33;18.65;;;9.93;;
65753;SDS011;52488;47.502;18.940;2022-08-23T02:20:36;27.77;;;10.93;;
65753;SDS011;52488;47.502;18.940;2022-08-23T02:21:42;19.67;;;10.27;;
65753;SDS011;52488;47.502;18.940;2022-08-23T02:22:49;23.95;;;10.60;;
65753;SDS011;52488;47.502;18.940;2022-08-23T02:23:52;17.67;;;9.52;;
65753;SDS011;52488;47.502;18.940;2022-08-23T02:24:55;21.83;;;10.48;;
65753;SDS011;52488;47.502;18.940;2022-08-23T02:25:59;19.90;;;9.30;;
65753;SDS011;52488;47.502;18.940;2022-08-23T02:27:03;17.45;;;9.80;;
65753;SDS011;52488;47.502;18.940;2022-08-23T02:28:07;25.62;;;10.57;;
65753;SDS011;52488;47.502;18.940;2022-08-23T02:29:10;27.95;;;11.27;;
65753;SDS011;52488;47.502;18.940;2022-08-23T02:30:14;25.70;;;10.63;;
65753;SDS011;52488;47.502;18.940;2022-08-23T02:31:17;21.50;;;10.40;;
65753;SDS011;52488;47.502;18.940;2022-08-23T02:32:21;29.23;;;10.20;;
65753;SDS011;52488;47.502;18.940;2022-08-23T02:33:28;18.50;;;10.35;;
65753;SDS011;52488;47.502;18.940;2022-08-23T02:34:31;18.62;;;9.85;;
65753;SDS011;52488;47.502;18.940;2022-08-23T02:35:43;24.63;;;10.13;;
65753;SDS011;52488;47.502;18.940;2022-08-23T02:36:47;19.23;;;9.85;;
65753;SDS011;52488;47.502;18.940;2022-08-23T02:37:50;20.50;;;10.18;;
65753;SDS011;52488;47.502;18.940;2022-08-23T02:38:54;18.35;;;9.88;;
65753;SDS011;52488;47.502;18.940;2022-08-23T02:39:57;19.98;;;10.63;;
65753;SDS011;52488;47.502;18.940;2022-08-23T02:41:01;17.15;;;10.07;;
65753;SDS011;52488;47.502;18.940;2022-08-23T02:42:04;23.23;;;10.07;;
65753;SDS011;52488;47.502;18.940;2022-08-23T02:43:08;22.67;;;9.90;;
65753;SDS011;52488;47.502;18.940;2022-08-23T02:44:12;19.70;;;9.93;;
65753;SDS011;52488;47.502;18.940;2022-08-23T02:45:15;21.45;;;9.88;;
65753;SDS011;52488;47.502;18.940;2022-08-23T02:46:19;21.62;;;9.57;;
65753;SDS011;52488;47.502;18.940;2022-08-23T02:47:24;19.75;;;10.05;;
65753;SDS011;52488;47.502;18.940;2022-08-23T02:48:27;19.85;;;9.95;;
65753;SDS011;52488;47.502;18.940;2022-08-23T02:49:36;17.12;;;9.23;;
65753;SDS011;52488;47.502;18.940;2022-08-23T02:50:39;15.50;;;9.50;;
65753;SDS011;52488;47.502;18.940;2022-08-23T02:51:42;18.30;;;9.93;;
65753;SDS011;52488;47.502;18.940;2022-08-23T02:52:46;17.40;;;9.63;;
65753;SDS011;52488;47.502;18.940;2022-08-23T02:53:49;16.35;;;10.10;;
65753;SDS011;52488;47.502;18.940;2022-08-23T02:54:52;19.83;;;10.15;;
65753;SDS011;52488;47.502;18.940;2022-08-23T02:56:00;20.48;;;10.00;;
65753;SDS011;52488;47.502;18.940;2022-08-23T02:57:04;23.05;;;10.02;;
65753;SDS011;52488;47.502;18.940;2022-08-23T02:58:10;15.77;;;9.48;;
65753;SDS011;52488;47.502;18.940;2022-08-23T02:59:13;17.70;;;9.75;;
65753;SDS011;52488;47.502;18.940;2022-08-23T03:00:17;20.77;;;9.98;;
65753;SDS011;52488;47.502;18.940;2022-08-23T03:01:25;17.73;;;10.25;;
65753;SDS011;52488;47.502;18.940;2022-08-23T03:02:31;19.67;;;11.00;;
65753;SDS011;52488;47.502;18.940;2022-08-23T03:03:34;19.08;;;10.35;;
65753;SDS011;52488;47.502;18.940;2022-08-23T03:04:39;18.05;;;10.13;;
65753;SDS011;52488;47.502;18.940;2022-08-23T03:05:42;17.02;;;9.48;;
65753;SDS011;52488;47.502;18.940;2022-08-23T03:06:45;19.17;;;10.80;;
65753;SDS011;52488;47.502;18.940;2022-08-23T03:07:48;17.67;;;10.45;;
65753;SDS011;52488;47.502;18.940;2022-08-23T03:08:52;22.23;;;10.40;;
65753;SDS011;52488;47.502;18.940;2022-08-23T03:09:56;16.92;;;10.10;;
65753;SDS011;52488;47.502;18.940;2022-08-23T03:10:59;17.12;;;9.57;;
65753;SDS011;52488;47.502;18.940;2022-08-23T03:12:10;16.05;;;10.00;;
65753;SDS011;52488;47.502;18.940;2022-08-23T03:13:13;21.90;;;10.85;;
65753;SDS011;52488;47.502;18.940;2022-08-23T03:14:16;19.23;;;10.07;;
65753;SDS011;52488;47.502;18.940;2022-08-23T03:15:19;20.05;;;10.52;;
65753;SDS011;52488;47.502;18.940;2022-08-23T03:16:23;20.80;;;10.50;;
65753;SDS011;52488;47.502;18.940;2022-08-23T03:17:26;17.10;;;10.20;;
65753;SDS011;52488;47.502;18.940;2022-08-23T03:18:29;23.00;;;10.63;;
65753;SDS011;52488;47.502;18.940;2022-08-23T03:19:32;25.60;;;10.38;;
65753;SDS011;52488;47.502;18.940;2022-08-23T03:20:37;18.27;;;9.70;;
65753;SDS011;52488;47.502;18.940;2022-08-23T03:21:43;22.48;;;10.70;;
65753;SDS011;52488;47.502;18.940;2022-08-23T03:22:47;22.23;;;10.40;;
65753;SDS011;52488;47.502;18.940;2022-08-23T03:23:56;25.45;;;11.12;;
65753;SDS011;52488;47.502;18.940;2022-08-23T03:24:59;17.08;;;10.57;;
65753;SDS011;52488;47.502;18.940;2022-08-23T03:26:03;21.58;;;9.60;;
65753;SDS011;52488;47.502;18.940;2022-08-23T03:27:07;23.00;;;11.05;;
65753;SDS011;52488;47.502;18.940;2022-08-23T03:28:10;20.45;;;10.60;;
65753;SDS011;52488;47.502;18.940;2022-08-23T03:29:14;20.45;;;10.27;;
65753;SDS011;52488;47.502;18.940;2022-08-23T03:30:17;21.40;;;10.73;;
65753;SDS011;52488;47.502;18.940;2022-08-23T03:31:21;22.00;;;11.12;;
65753;SDS011;52488;47.502;18.940;2022-08-23T03:32:25;22.50;;;10.73;;
65753;SDS011;52488;47.502;18.940;2022-08-23T03:33:28;20.65;;;10.88;;
65753;SDS011;52488;47.502;18.940;2022-08-23T03:34:31;18.85;;;10.23;;
65753;SDS011;52488;47.502;18.940;2022-08-23T03:35:34;20.00;;;10.90;;
65753;SDS011;52488;47.502;18.940;2022-08-23T03:36:37;21.23;;;11.05;;
65753;SDS011;52488;47.502;18.940;2022-08-23T03:37:40;22.30;;;10.57;;
65753;SDS011;52488;47.502;18.940;2022-08-23T03:38:43;24.85;;;12.30;;
65753;SDS011;52488;47.502;18.940;2022-08-23T03:39:47;31.83;;;11.98;;
65753;SDS011;52488;47.502;18.940;2022-08-23T03:40:50;35.80;;;13.23;;
65753;SDS011;52488;47.502;18.940;2022-08-23T03:41:55;41.90;;;12.68;;
65753;SDS011;52488;47.502;18.940;2022-08-23T03:42:58;26.80;;;11.75;;
65753;SDS011;52488;47.502;18.940;2022-08-23T03:44:02;34.55;;;12.50;;
65753;SDS011;52488;47.502;18.940;2022-08-23T03:45:05;33.63;;;11.77;;
65753;SDS011;52488;47.502;18.940;2022-08-23T03:46:09;46.85;;;11.98;;
65753;SDS011;52488;47.502;18.940;2022-08-23T03:47:24;48.58;;;13.65;;
65753;SDS011;52488;47.502;18.940;2022-08-23T03:48:27;43.25;;;13.23;;
65753;SDS011;52488;47.502;18.940;2022-08-23T03:49:30;40.60;;;13.18;;
65753;SDS011;52488;47.502;18.940;2022-08-23T03:50:33;37.47;;;12.05;;
65753;SDS011;52488;47.502;18.940;2022-08-23T03:51:37;60.20;;;12.80;;
65753;SDS011;52488;47.502;18.940;2022-08-23T03:52:40;52.67;;;13.13;;
65753;SDS011;52488;47.502;18.940;2022-08-23T03:53:44;27.52;;;11.77;;
65753;SDS011;52488;47.502;18.940;2022-08-23T03:54:49;42.83;;;12.55;;
65753;SDS011;52488;47.502;18.940;2022-08-23T03:55:52;53.35;;;12.57;;
65753;SDS011;52488;47.502;18.940;2022-08-23T03:56:58;42.33;;;11.60;;
65753;SDS011;52488;47.502;18.940;2022-08-23T03:58:06;44.58;;;12.73;;
65753;SDS011;52488;47.502;18.940;2022-08-23T03:59:09;65.03;;;12.95;;
65753;SDS011;52488;47.502;18.940;2022-08-23T04:00:15;28.65;;;11.50;;
65753;SDS011;52488;47.502;18.940;2022-08-23T04:01:22;56.83;;;12.05;;
65753;SDS011;52488;47.502;18.940;2022-08-23T04:02:30;101.25;;;12.70;;
65753;SDS011;52488;47.502;18.940;2022-08-23T04:03:37;34.97;;;12.02;;
65753;SDS011;52488;47.502;18.940;2022-08-23T04:04:41;59.70;;;12.75;;
65753;SDS011;52488;47.502;18.940;2022-08-23T04:05:44;30.88;;;12.43;;
65753;SDS011;52488;47.502;18.940;2022-08-23T04:06:48;32.42;;;11.63;;
65753;SDS011;52488;47.502;18.940;2022-08-23T04:07:51;41.08;;;11.15;;
65753;SDS011;52488;47.502;18.940;2022-08-23T04:08:55;48.17;;;10.73;;
65753;SDS011;52488;47.502;18.940;2022-08-23T04:09:58;76.93;;;12.85;;
65753;SDS011;52488;47.502;18.940;2022-08-23T04:11:05;51.92;;;10.95;;
65753;SDS011;52488;47.502;18.940;2022-08-23T04:12:09;42.50;;;11.35;;
65753;SDS011;52488;47.502;18.940;2022-08-23T04:13:19;67.72;;;11.88;;
65753;SDS011;52488;47.502;18.940;2022-08-23T04:14:22;118.22;;;12.85;;
65753;SDS011;52488;47.502;18.940;2022-08-23T04:15:26;72.78;;;11.32;;
65753;SDS011;52488;47.502;18.940;2022-08-23T04:16:29;22.73;;;10.85;;
65753;SDS011;52488;47.502;18.940;2022-08-23T04:17:38;83.45;;;11.25;;
65753;SDS011;52488;47.502;18.940;2022-08-23T04:18:41;96.78;;;11.38;;
65753;SDS011;52488;47.502;18.940;2022-08-23T04:19:48;123.95;;;11.57;;
65753;SDS011;52488;47.502;18.940;2022-08-23T04:20:52;35.35;;;10.40;;
65753;SDS011;52488;47.502;18.940;2022-08-23T04:21:55;16.85;;;10.02;;
65753;SDS011;52488;47.502;18.940;2022-08-23T04:22:58;20.65;;;10.25;;
65753;SDS011;52488;47.502;18.940;2022-08-23T04:24:01;60.58;;;11.50;;
65753;SDS011;52488;47.502;18.940;2022-08-23T04:25:06;38.60;;;10.68;;
65753;SDS011;52488;47.502;18.940;2022-08-23T04:26:29;33.75;;;9.55;;
65753;SDS011;52488;47.502;18.940;2022-08-23T04:27:32;29.90;;;9.68;;
65753;SDS011;52488;47.502;18.940;2022-08-23T04:28:36;17.85;;;9.48;;
65753;SDS011;52488;47.502;18.940;2022-08-23T04:29:39;22.02;;;9.73;;
65753;SDS011;52488;47.502;18.940;2022-08-23T04:30:48;31.48;;;10.45;;
65753;SDS011;52488;47.502;18.940;2022-08-23T04:31:56;103.93;;;11.85;;
65753;SDS011;52488;47.502;18.940;2022-08-23T04:32:59;97.93;;;11.70;;
65753;SDS011;52488;47.502;18.940;2022-08-23T04:34:03;36.65;;;10.75;;
65753;SDS011;52488;47.502;18.940;2022-08-23T04:35:06;52.97;;;10.73;;
65753;SDS011;52488;47.502;18.940;2022-08-23T04:36:09;48.03;;;10.60;;
65753;SDS011;52488;47.502;18.940;2022-08-23T04:37:12;33.10;;;10.55;;
65753;SDS011;52488;47.502;18.940;2022-08-23T04:38:17;30.80;;;10.38;;
65753;SDS011;52488;47.502;18.940;2022-08-23T04:39:26;39.08;;;10.48;;
65753;SDS011;52488;47.502;18.940;2022-08-23T04:40:30;22.87;;;10.07;;
65753;SDS011;52488;47.502;18.940;2022-08-23T04:41:51;136.48;;;12.52;;
65753;SDS011;52488;47.502;18.940;2022-08-23T04:43:16;146.65;;;13.73;;
65753;SDS011;52488;47.502;18.940;2022-08-23T04:44:19;201.45;;;14.32;;
65753;SDS011;52488;47.502;18.940;2022-08-23T04:45:27;74.07;;;12.93;;
65753;SDS011;52488;47.502;18.940;2022-08-23T04:46:30;130.70;;;13.55;;
65753;SDS011;52488;47.502;18.940;2022-08-23T04:47:33;202.43;;;14.05;;
65753;SDS011;52488;47.502;18.940;2022-08-23T04:48:41;38.03;;;11.45;;
65753;SDS011;52488;47.502;18.940;2022-08-23T04:49:44;145.73;;;14.60;;
65753;SDS011;52488;47.502;18.940;2022-08-23T04:50:48;294.60;;;17.87;;
65753;SDS011;52488;47.502;18.940;2022-08-23T04:51:51;49.67;;;12.25;;
65753;SDS011;52488;47.502;18.940;2022-08-23T04:52:56;133.37;;;12.93;;
65753;SDS011;52488;47.502;18.940;2022-08-23T04:53:59;154.70;;;15.88;;
65753;SDS011;52488;47.502;18.940;2022-08-23T04:55:02;66.22;;;13.40;;
65753;SDS011;52488;47.502;18.940;2022-08-23T04:56:06;20.42;;;11.30;;
65753;SDS011;52488;47.502;18.940;2022-08-23T04:57:10;66.95;;;12.40;;
65753;SDS011;52488;47.502;18.940;2022-08-23T04:58:13;111.72;;;13.88;;
65753;SDS011;52488;47.502;18.940;2022-08-23T04:59:16;66.62;;;12.45;;
65753;SDS011;52488;47.502;18.940;2022-08-23T05:00:20;65.15;;;13.05;;
65753;SDS011;52488;47.502;18.940;2022-08-23T05:01:28;101.05;;;12.55;;
65753;SDS011;52488;47.502;18.940;2022-08-23T05:02:32;64.95;;;12.20;;
65753;SDS011;52488;47.502;18.940;2022-08-23T05:03:35;93.65;;;12.48;;
65753;SDS011;52488;47.502;18.940;2022-08-23T05:04:39;35.17;;;12.15;;
65753;SDS011;52488;47.502;18.940;2022-08-23T05:05:43;35.10;;;11.55;;
65753;SDS011;52488;47.502;18.940;2022-08-23T05:06:46;28.00;;;11.52;;
65753;SDS011;52488;47.502;18.940;2022-08-23T05:07:49;49.50;;;12.05;;
65753;SDS011;52488;47.502;18.940;2022-08-23T05:08:52;44.17;;;11.60;;
65753;SDS011;52488;47.502;18.940;2022-08-23T05:09:56;26.80;;;11.55;;
65753;SDS011;52488;47.502;18.940;2022-08-23T05:11:02;31.17;;;11.80;;
65753;SDS011;52488;47.502;18.940;2022-08-23T05:12:06;42.95;;;11.00;;
65753;SDS011;52488;47.502;18.940;2022-08-23T05:13:13;27.10;;;11.30;;
65753;SDS011;52488;47.502;18.940;2022-08-23T05:14:16;19.67;;;11.23;;
65753;SDS011;52488;47.502;18.940;2022-08-23T05:15:19;32.88;;;11.30;;
65753;SDS011;52488;47.502;18.940;2022-08-23T05:16:22;17.20;;;10.85;;
65753;SDS011;52488;47.502;18.940;2022-08-23T05:17:26;17.00;;;10.48;;
65753;SDS011;52488;47.502;18.940;2022-08-23T05:18:29;19.15;;;10.35;;
65753;SDS011;52488;47.502;18.940;2022-08-23T05:19:32;13.18;;;9.57;;
65753;SDS011;52488;47.502;18.940;2022-08-23T05:20:38;17.62;;;10.82;;
65753;SDS011;52488;47.502;18.940;2022-08-23T05:21:41;16.20;;;9.73;;
65753;SDS011;52488;47.502;18.940;2022-08-23T05:22:47;17.65;;;10.25;;
65753;SDS011;52488;47.502;18.940;2022-08-23T05:23:51;18.55;;;10.45;;
65753;SDS011;52488;47.502;18.940;2022-08-23T05:24:56;17.50;;;9.35;;
65753;SDS011;52488;47.502;18.940;2022-08-23T05:25:59;16.77;;;10.63;;
65753;SDS011;52488;47.502;18.940;2022-08-23T05:27:03;17.08;;;10.05;;
65753;SDS011;52488;47.502;18.940;2022-08-23T05:28:06;18.55;;;9.82;;
65753;SDS011;52488;47.502;18.940;2022-08-23T05:29:09;18.55;;;10.38;;
65753;SDS011;52488;47.502;18.940;2022-08-23T05:30:16;20.90;;;11.38;;
65753;SDS011;52488;47.502;18.940;2022-08-23T05:31:21;16.37;;;11.00;;
65753;SDS011;52488;47.502;18.940;2022-08-23T05:32:25;22.40;;;10.75;;
65753;SDS011;52488;47.502;18.940;2022-08-23T05:33:54;15.95;;;10.02;;
65753;SDS011;52488;47.502;18.940;2022-08-23T05:35:17;15.23;;;9.80;;
65753;SDS011;52488;47.502;18.940;2022-08-23T05:36:40;15.63;;;9.88;;
65753;SDS011;52488;47.502;18.940;2022-08-23T05:38:16;15.00;;;9.48;;
65753;SDS011;52488;47.502;18.940;2022-08-23T05:39:42;15.68;;;10.20;;
65753;SDS011;52488;47.502;18.940;2022-08-23T05:41:05;16.48;;;10.07;;
65753;SDS011;52488;47.502;18.940;2022-08-23T05:42:28;18.35;;;9.55;;
65753;SDS011;52488;47.502;18.940;2022-08-23T05:43:51;23.33;;;10.60;;
65753;SDS011;52488;47.502;18.940;2022-08-23T05:45:14;21.70;;;10.27;;
65753;SDS011;52488;47.502;18.940;2022-08-23T05:46:43;18.95;;;10.27;;
65753;SDS011;52488;47.502;18.940;2022-08-23T05:48:09;15.88;;;10.32;;
65753;SDS011;52488;47.502;18.940;2022-08-23T05:49:33;20.98;;;12.00;;
65753;SDS011;52488;47.502;18.940;2022-08-23T05:51:18;16.37;;;10.68;;
65753;SDS011;52488;47.502;18.940;2022-08-23T05:52:43;25.62;;;11.82;;
65753;SDS011;52488;47.502;18.940;2022-08-23T05:54:12;24.25;;;12.18;;
65753;SDS011;52488;47.502;18.940;2022-08-23T05:55:35;19.52;;;11.40;;
65753;SDS011;52488;47.502;18.940;2022-08-23T05:56:58;24.37;;;11.07;;
65753;SDS011;52488;47.502;18.940;2022-08-23T05:58:22;23.35;;;11.80;;
65753;SDS011;52488;47.502;18.940;2022-08-23T05:59:45;18.33;;;10.57;;
65753;SDS011;52488;47.502;18.940;2022-08-23T06:01:08;18.92;;;11.00;;
65753;SDS011;52488;47.502;18.940;2022-08-23T06:02:32;18.83;;;11.23;;
65753;SDS011;52488;47.502;18.940;2022-08-23T06:03:57;20.05;;;11.43;;
65753;SDS011;52488;47.502;18.940;2022-08-23T06:05:21;18.10;;;10.35;;
65753;SDS011;52488;47.502;18.940;2022-08-23T06:06:44;20.08;;;10.77;;
65753;SDS011;52488;47.502;18.940;2022-08-23T06:08:07;18.50;;;10.73;;
65753;SDS011;52488;47.502;18.940;2022-08-23T06:09:30;17.25;;;10.00;;
65753;SDS011;52488;47.502;18.940;2022-08-23T06:11:03;17.33;;;9.73;;
65753;SDS011;52488;47.502;18.940;2022-08-23T06:12:29;16.90;;;9.40;;
65753;SDS011;52488;47.502;18.940;2022-08-23T06:13:56;17.50;;;10.40;;
65753;SDS011;52488;47.502;18.940;2022-08-23T06:15:20;14.23;;;9.55;;
65753;SDS011;52488;47.502;18.940;2022-08-23T06:16:43;16.48;;;9.95;;
65753;SDS011;52488;47.502;18.940;2022-08-23T06:17:48;18.33;;;10.60;;
65753;SDS011;52488;47.502;18.940;2022-08-23T06:18:53;16.83;;;10.45;;
65753;SDS011;52488;47.502;18.940;2022-08-23T06:19:57;17.25;;;10.70;;
65753;SDS011;52488;47.502;18.940;2022-08-23T06:21:04;20.73;;;10.50;;
65753;SDS011;52488;47.502;18.940;2022-08-23T06:22:09;19.55;;;10.65;;
65753;SDS011;52488;47.502;18.940;2022-08-23T06:23:12;17.92;;;10.55;;
65753;SDS011;52488;47.502;18.940;2022-08-23T06:24:15;18.30;;;10.77;;
65753;SDS011;52488;47.502;18.940;2022-08-23T06:25:18;16.42;;;11.02;;
65753;SDS011;52488;47.502;18.940;2022-08-23T06:26:23;17.33;;;10.32;;
65753;SDS011;52488;47.502;18.940;2022-08-23T06:27:28;15.93;;;9.63;;
65753;SDS011;52488;47.502;18.940;2022-08-23T06:28:31;16.73;;;9.65;;
65753;SDS011;52488;47.502;18.940;2022-08-23T06:29:51;16.77;;;10.00;;
65753;SDS011;52488;47.502;18.940;2022-08-23T06:30:55;14.95;;;9.23;;
65753;SDS011;52488;47.502;18.940;2022-08-23T06:31:58;21.65;;;10.23;;
65753;SDS011;52488;47.502;18.940;2022-08-23T06:33:01;21.55;;;10.35;;
65753;SDS011;52488;47.502;18.940;2022-08-23T06:34:04;16.05;;;9.60;;
65753;SDS011;52488;47.502;18.940;2022-08-23T06:35:08;28.05;;;11.05;;